sensor_id;sensor_type;location;lat;lon;timestamp;P1;durP1;ratioP1;P2;durP2;ratioP2
17864;SDS011;9058;52.018;4.202;2023-02-21T00:01:02;28.90;;;13.50;;
17864;SDS011;9058;52.018;4.202;2023-02-21T00:03:47;33.47;;;15.52;;
17864;SDS011;9058;52.018;4.202;2023-02-21T00:06:31;25.70;;;13.73;;
17864;SDS011;9058;52.018;4.202;2023-02-21T00:09:14;28.63;;;15.10;;
17864;SDS011;9058;52.018;4.202;2023-02-21T00:12:00;29.08;;;13.15;;
17864;SDS011;9058;52.018;4.202;2023-02-21T00:14:44;30.92;;;14.93;;
17864;SDS011;9058;52.018;4.202;2023-02-21T00:17:28;30.40;;;15.48;;
17864;SDS011;9058;52.018;4.202;2023-02-21T00:20:12;32.10;;;16.45;;
17864;SDS011;9058;52.018;4.202;2023-02-21T00:22:56;32.53;;;15.35;;
17864;SDS011;9058;52.018;4.202;2023-02-21T00:25:41;28.85;;;15.70;;
17864;SDS011;9058;52.018;4.202;2023-02-21T00:28:26;28.38;;;14.98;;
17864;SDS011;9058;52.018;4.202;2023-02-21T00:31:10;29.60;;;14.45;;
17864;SDS011;9058;52.018;4.202;2023-02-21T00:33:54;36.17;;;16.35;;
17864;SDS011;9058;52.018;4.202;2023-02-21T00:36:38;28.70;;;15.35;;
17864;SDS011;9058;52.018;4.202;2023-02-21T00:39:22;32.42;;;16.42;;
17864;SDS011;9058;52.018;4.202;2023-02-21T00:42:06;35.95;;;17.27;;
17864;SDS011;9058;52.018;4.202;2023-02-21T00:44:52;33.85;;;15.57;;
17864;SDS011;9058;52.018;4.202;2023-02-21T00:47:36;32.10;;;16.33;;
17864;SDS011;9058;52.018;4.202;2023-02-21T00:50:19;34.60;;;16.75;;
17864;SDS011;9058;52.018;4.202;2023-02-21T00:53:03;33.95;;;15.77;;
17864;SDS011;9058;52.018;4.202;2023-02-21T00:55:48;38.17;;;17.20;;
17864;SDS011;9058;52.018;4.202;2023-02-21T00:58:32;32.63;;;17.50;;
17864;SDS011;9058;52.018;4.202;2023-02-21T01:01:18;30.08;;;16.83;;
17864;SDS011;9058;52.018;4.202;2023-02-21T01:04:01;40.05;;;17.10;;
17864;SDS011;9058;52.018;4.202;2023-02-21T01:06:45;37.05;;;16.17;;
17864;SDS011;9058;52.018;4.202;2023-02-21T01:09:29;35.92;;;18.73;;
17864;SDS011;9058;52.018;4.202;2023-02-21T01:12:13;35.90;;;18.95;;
17864;SDS011;9058;52.018;4.202;2023-02-21T01:14:57;37.15;;;18.60;;
17864;SDS011;9058;52.018;4.202;2023-02-21T01:17:43;39.55;;;18.67;;
17864;SDS011;9058;52.018;4.202;2023-02-21T01:20:27;40.50;;;17.65;;
17864;SDS011;9058;52.018;4.202;2023-02-21T01:23:11;34.60;;;18.08;;
17864;SDS011;9058;52.018;4.202;2023-02-21T01:25:55;41.80;;;18.35;;
17864;SDS011;9058;52.018;4.202;2023-02-21T01:28:39;28.98;;;15.95;;
17864;SDS011;9058;52.018;4.202;2023-02-21T01:31:23;35.35;;;17.67;;
17864;SDS011;9058;52.018;4.202;2023-02-21T01:34:08;36.00;;;18.13;;
17864;SDS011;9058;52.018;4.202;2023-02-21T01:36:52;41.20;;;20.00;;
17864;SDS011;9058;52.018;4.202;2023-02-21T01:39:36;38.35;;;18.88;;
17864;SDS011;9058;52.018;4.202;2023-02-21T01:42:22;38.78;;;19.65;;
17864;SDS011;9058;52.018;4.202;2023-02-21T01:48:18;34.15;;;18.20;;
17864;SDS011;9058;52.018;4.202;2023-02-21T01:51:04;36.97;;;19.30;;
17864;SDS011;9058;52.018;4.202;2023-02-21T01:53:49;34.42;;;20.38;;
17864;SDS011;9058;52.018;4.202;2023-02-21T01:56:33;37.20;;;20.70;;
17864;SDS011;9058;52.018;4.202;2023-02-21T01:59:18;38.67;;;20.95;;
17864;SDS011;9058;52.018;4.202;2023-02-21T02:02:06;36.78;;;19.00;;
17864;SDS011;9058;52.018;4.202;2023-02-21T02:04:52;37.40;;;19.35;;
17864;SDS011;9058;52.018;4.202;2023-02-21T02:07:39;38.25;;;20.77;;
17864;SDS011;9058;52.018;4.202;2023-02-21T02:10:23;38.55;;;21.30;;
17864;SDS011;9058;52.018;4.202;2023-02-21T02:13:13;40.10;;;20.15;;
17864;SDS011;9058;52.018;4.202;2023-02-21T02:15:44;37.90;;;20.65;;
17864;SDS011;9058;52.018;4.202;2023-02-21T02:18:19;47.28;;;23.63;;
17864;SDS011;9058;52.018;4.202;2023-02-21T02:21:00;43.03;;;22.27;;
17864;SDS011;9058;52.018;4.202;2023-02-21T02:23:38;38.45;;;20.65;;
17864;SDS011;9058;52.018;4.202;2023-02-21T02:26:15;45.33;;;23.63;;
17864;SDS011;9058;52.018;4.202;2023-02-21T02:28:51;45.50;;;23.98;;
17864;SDS011;9058;52.018;4.202;2023-02-21T02:31:30;47.42;;;23.30;;
17864;SDS011;9058;52.018;4.202;2023-02-21T02:34:22;37.88;;;21.63;;
17864;SDS011;9058;52.018;4.202;2023-02-21T02:36:50;48.13;;;24.73;;
17864;SDS011;9058;52.018;4.202;2023-02-21T02:39:20;42.88;;;24.70;;
17864;SDS011;9058;52.018;4.202;2023-02-21T02:41:52;50.67;;;25.02;;
17864;SDS011;9058;52.018;4.202;2023-02-21T02:44:23;51.83;;;27.27;;
17864;SDS011;9058;52.018;4.202;2023-02-21T02:46:50;50.08;;;25.83;;
17864;SDS011;9058;52.018;4.202;2023-02-21T02:49:18;46.70;;;25.60;;
17864;SDS011;9058;52.018;4.202;2023-02-21T02:51:47;55.00;;;25.35;;
17864;SDS011;9058;52.018;4.202;2023-02-21T02:54:13;45.33;;;24.40;;
17864;SDS011;9058;52.018;4.202;2023-02-21T02:56:40;53.38;;;26.77;;
17864;SDS011;9058;52.018;4.202;2023-02-21T02:59:06;49.53;;;26.83;;
17864;SDS011;9058;52.018;4.202;2023-02-21T03:01:39;43.42;;;23.75;;
17864;SDS011;9058;52.018;4.202;2023-02-21T03:04:13;46.67;;;24.92;;
17864;SDS011;9058;52.018;4.202;2023-02-21T03:06:43;52.55;;;26.55;;
17864;SDS011;9058;52.018;4.202;2023-02-21T03:09:13;40.53;;;26.23;;
17864;SDS011;9058;52.018;4.202;2023-02-21T03:11:45;52.67;;;26.70;;
17864;SDS011;9058;52.018;4.202;2023-02-21T03:14:16;46.95;;;24.70;;
17864;SDS011;9058;52.018;4.202;2023-02-21T03:16:46;46.25;;;26.05;;
17864;SDS011;9058;52.018;4.202;2023-02-21T03:19:13;44.17;;;24.45;;
17864;SDS011;9058;52.018;4.202;2023-02-21T03:21:42;47.78;;;26.70;;
17864;SDS011;9058;52.018;4.202;2023-02-21T03:24:10;48.35;;;28.25;;
17864;SDS011;9058;52.018;4.202;2023-02-21T03:26:39;49.75;;;27.30;;
17864;SDS011;9058;52.018;4.202;2023-02-21T03:29:07;52.92;;;29.42;;
17864;SDS011;9058;52.018;4.202;2023-02-21T03:31:35;51.38;;;27.85;;
17864;SDS011;9058;52.018;4.202;2023-02-21T03:34:02;58.65;;;26.48;;
17864;SDS011;9058;52.018;4.202;2023-02-21T03:36:29;50.75;;;28.52;;
17864;SDS011;9058;52.018;4.202;2023-02-21T03:38:56;54.30;;;29.08;;
17864;SDS011;9058;52.018;4.202;2023-02-21T03:41:22;51.40;;;27.23;;
17864;SDS011;9058;52.018;4.202;2023-02-21T03:43:50;46.55;;;26.40;;
17864;SDS011;9058;52.018;4.202;2023-02-21T03:46:17;57.13;;;27.50;;
17864;SDS011;9058;52.018;4.202;2023-02-21T03:48:43;59.67;;;27.10;;
17864;SDS011;9058;52.018;4.202;2023-02-21T03:51:10;50.25;;;26.92;;
17864;SDS011;9058;52.018;4.202;2023-02-21T03:53:36;52.03;;;27.80;;
17864;SDS011;9058;52.018;4.202;2023-02-21T03:56:03;52.70;;;27.30;;
17864;SDS011;9058;52.018;4.202;2023-02-21T03:58:29;56.25;;;28.15;;
17864;SDS011;9058;52.018;4.202;2023-02-21T04:00:58;52.63;;;27.75;;
17864;SDS011;9058;52.018;4.202;2023-02-21T04:03:24;54.75;;;28.92;;
17864;SDS011;9058;52.018;4.202;2023-02-21T04:05:51;52.72;;;27.83;;
17864;SDS011;9058;52.018;4.202;2023-02-21T04:08:18;52.10;;;26.92;;
17864;SDS011;9058;52.018;4.202;2023-02-21T04:10:45;48.75;;;27.80;;
17864;SDS011;9058;52.018;4.202;2023-02-21T04:13:11;53.75;;;27.38;;
17864;SDS011;9058;52.018;4.202;2023-02-21T04:15:38;44.90;;;26.75;;
17864;SDS011;9058;52.018;4.202;2023-02-21T04:18:06;43.47;;;26.30;;
17864;SDS011;9058;52.018;4.202;2023-02-21T04:20:32;44.05;;;25.83;;
17864;SDS011;9058;52.018;4.202;2023-02-21T04:22:59;52.90;;;27.63;;
17864;SDS011;9058;52.018;4.202;2023-02-21T04:25:25;46.40;;;26.48;;
17864;SDS011;9058;52.018;4.202;2023-02-21T04:27:52;46.03;;;27.05;;
17864;SDS011;9058;52.018;4.202;2023-02-21T04:30:19;53.47;;;27.33;;
17864;SDS011;9058;52.018;4.202;2023-02-21T04:32:45;52.00;;;27.42;;
17864;SDS011;9058;52.018;4.202;2023-02-21T04:35:13;47.88;;;29.55;;
17864;SDS011;9058;52.018;4.202;2023-02-21T04:37:40;45.70;;;27.05;;
17864;SDS011;9058;52.018;4.202;2023-02-21T04:40:09;49.67;;;28.00;;
17864;SDS011;9058;52.018;4.202;2023-02-21T04:42:35;42.67;;;26.63;;
17864;SDS011;9058;52.018;4.202;2023-02-21T04:45:02;47.80;;;28.77;;
17864;SDS011;9058;52.018;4.202;2023-02-21T04:47:29;51.75;;;28.33;;
17864;SDS011;9058;52.018;4.202;2023-02-21T04:49:56;44.60;;;27.60;;
17864;SDS011;9058;52.018;4.202;2023-02-21T04:52:26;50.08;;;27.80;;
17864;SDS011;9058;52.018;4.202;2023-02-21T04:54:53;47.05;;;27.70;;
17864;SDS011;9058;52.018;4.202;2023-02-21T04:57:19;48.47;;;26.92;;
17864;SDS011;9058;52.018;4.202;2023-02-21T04:59:46;46.60;;;27.88;;
17864;SDS011;9058;52.018;4.202;2023-02-21T05:02:12;46.63;;;27.70;;
17864;SDS011;9058;52.018;4.202;2023-02-21T05:04:39;42.42;;;27.10;;
17864;SDS011;9058;52.018;4.202;2023-02-21T05:07:07;49.95;;;28.58;;
17864;SDS011;9058;52.018;4.202;2023-02-21T05:09:35;47.25;;;27.88;;
17864;SDS011;9058;52.018;4.202;2023-02-21T05:12:02;44.00;;;27.58;;
17864;SDS011;9058;52.018;4.202;2023-02-21T05:14:35;48.08;;;27.35;;
17864;SDS011;9058;52.018;4.202;2023-02-21T05:17:02;43.35;;;28.88;;
17864;SDS011;9058;52.018;4.202;2023-02-21T05:19:29;46.67;;;27.38;;
17864;SDS011;9058;52.018;4.202;2023-02-21T05:21:56;42.05;;;28.63;;
17864;SDS011;9058;52.018;4.202;2023-02-21T05:24:23;48.15;;;28.25;;
17864;SDS011;9058;52.018;4.202;2023-02-21T05:26:51;47.65;;;28.13;;
17864;SDS011;9058;52.018;4.202;2023-02-21T05:29:17;48.88;;;28.55;;
17864;SDS011;9058;52.018;4.202;2023-02-21T05:31:44;44.78;;;28.25;;
17864;SDS011;9058;52.018;4.202;2023-02-21T05:34:11;43.35;;;28.15;;
17864;SDS011;9058;52.018;4.202;2023-02-21T05:36:37;47.72;;;27.98;;
17864;SDS011;9058;52.018;4.202;2023-02-21T05:39:05;51.58;;;28.02;;
17864;SDS011;9058;52.018;4.202;2023-02-21T05:41:31;48.08;;;28.08;;
17864;SDS011;9058;52.018;4.202;2023-02-21T05:44:01;47.28;;;27.83;;
17864;SDS011;9058;52.018;4.202;2023-02-21T05:46:28;49.28;;;28.17;;
17864;SDS011;9058;52.018;4.202;2023-02-21T05:48:56;49.75;;;28.40;;
17864;SDS011;9058;52.018;4.202;2023-02-21T05:51:23;46.00;;;26.58;;
17864;SDS011;9058;52.018;4.202;2023-02-21T05:53:51;52.10;;;28.77;;
17864;SDS011;9058;52.018;4.202;2023-02-21T05:56:18;51.10;;;27.77;;
17864;SDS011;9058;52.018;4.202;2023-02-21T05:58:45;45.97;;;26.92;;
17864;SDS011;9058;52.018;4.202;2023-02-21T06:01:13;45.83;;;28.17;;
17864;SDS011;9058;52.018;4.202;2023-02-21T06:03:40;53.92;;;28.90;;
17864;SDS011;9058;52.018;4.202;2023-02-21T06:06:07;47.55;;;28.05;;
17864;SDS011;9058;52.018;4.202;2023-02-21T06:08:40;48.25;;;31.02;;
17864;SDS011;9058;52.018;4.202;2023-02-21T06:11:07;48.20;;;29.70;;
17864;SDS011;9058;52.018;4.202;2023-02-21T06:13:34;52.80;;;29.48;;
17864;SDS011;9058;52.018;4.202;2023-02-21T06:16:01;49.38;;;29.75;;
17864;SDS011;9058;52.018;4.202;2023-02-21T06:18:29;45.83;;;28.20;;
17864;SDS011;9058;52.018;4.202;2023-02-21T06:20:55;54.40;;;28.75;;
17864;SDS011;9058;52.018;4.202;2023-02-21T06:23:21;49.28;;;28.73;;
17864;SDS011;9058;52.018;4.202;2023-02-21T06:25:48;53.97;;;28.45;;
17864;SDS011;9058;52.018;4.202;2023-02-21T06:28:14;48.70;;;27.70;;
17864;SDS011;9058;52.018;4.202;2023-02-21T06:30:41;49.40;;;29.95;;
17864;SDS011;9058;52.018;4.202;2023-02-21T06:33:08;50.60;;;28.20;;
17864;SDS011;9058;52.018;4.202;2023-02-21T06:35:36;46.88;;;28.73;;
17864;SDS011;9058;52.018;4.202;2023-02-21T06:38:02;49.95;;;28.45;;
17864;SDS011;9058;52.018;4.202;2023-02-21T06:40:28;49.00;;;27.95;;
17864;SDS011;9058;52.018;4.202;2023-02-21T06:42:57;47.17;;;27.08;;
17864;SDS011;9058;52.018;4.202;2023-02-21T06:45:24;47.42;;;28.52;;
17864;SDS011;9058;52.018;4.202;2023-02-21T06:47:50;45.78;;;27.52;;
17864;SDS011;9058;52.018;4.202;2023-02-21T06:50:16;44.38;;;27.77;;
17864;SDS011;9058;52.018;4.202;2023-02-21T06:52:44;45.47;;;27.83;;
17864;SDS011;9058;52.018;4.202;2023-02-21T06:55:11;41.78;;;26.88;;
17864;SDS011;9058;52.018;4.202;2023-02-21T06:57:37;46.22;;;26.58;;
17864;SDS011;9058;52.018;4.202;2023-02-21T07:00:04;46.92;;;28.75;;
17864;SDS011;9058;52.018;4.202;2023-02-21T07:02:31;46.60;;;29.88;;
17864;SDS011;9058;52.018;4.202;2023-02-21T07:04:57;45.20;;;29.42;;
17864;SDS011;9058;52.018;4.202;2023-02-21T07:07:23;50.65;;;29.48;;
17864;SDS011;9058;52.018;4.202;2023-02-21T07:09:51;49.10;;;29.15;;
17864;SDS011;9058;52.018;4.202;2023-02-21T07:12:17;45.83;;;28.67;;
17864;SDS011;9058;52.018;4.202;2023-02-21T07:14:44;49.08;;;28.95;;
17864;SDS011;9058;52.018;4.202;2023-02-21T07:17:10;49.42;;;30.23;;
17864;SDS011;9058;52.018;4.202;2023-02-21T07:19:36;42.33;;;28.83;;
17864;SDS011;9058;52.018;4.202;2023-02-21T07:22:03;47.78;;;30.45;;
17864;SDS011;9058;52.018;4.202;2023-02-21T07:24:29;41.50;;;27.33;;
17864;SDS011;9058;52.018;4.202;2023-02-21T07:26:57;47.17;;;28.27;;
17864;SDS011;9058;52.018;4.202;2023-02-21T07:29:23;39.63;;;29.95;;
17864;SDS011;9058;52.018;4.202;2023-02-21T07:31:50;44.22;;;29.90;;
17864;SDS011;9058;52.018;4.202;2023-02-21T07:34:16;46.30;;;28.80;;
17864;SDS011;9058;52.018;4.202;2023-02-21T07:36:44;44.78;;;28.00;;
17864;SDS011;9058;52.018;4.202;2023-02-21T07:39:10;44.75;;;28.08;;
17864;SDS011;9058;52.018;4.202;2023-02-21T07:41:37;45.15;;;29.83;;
17864;SDS011;9058;52.018;4.202;2023-02-21T07:44:05;42.78;;;28.23;;
17864;SDS011;9058;52.018;4.202;2023-02-21T07:46:32;41.22;;;28.40;;
17864;SDS011;9058;52.018;4.202;2023-02-21T07:48:58;46.70;;;28.48;;
17864;SDS011;9058;52.018;4.202;2023-02-21T07:51:26;38.70;;;26.58;;
17864;SDS011;9058;52.018;4.202;2023-02-21T07:53:52;44.35;;;27.75;;
17864;SDS011;9058;52.018;4.202;2023-02-21T07:56:19;44.47;;;28.67;;
17864;SDS011;9058;52.018;4.202;2023-02-21T07:58:45;40.42;;;28.77;;
17864;SDS011;9058;52.018;4.202;2023-02-21T08:01:13;42.95;;;26.58;;
17864;SDS011;9058;52.018;4.202;2023-02-21T08:03:39;41.92;;;27.60;;
17864;SDS011;9058;52.018;4.202;2023-02-21T08:06:06;39.35;;;27.05;;
17864;SDS011;9058;52.018;4.202;2023-02-21T08:08:33;40.67;;;27.88;;
17864;SDS011;9058;52.018;4.202;2023-02-21T08:10:59;41.92;;;26.75;;
17864;SDS011;9058;52.018;4.202;2023-02-21T08:13:26;38.17;;;27.42;;
17864;SDS011;9058;52.018;4.202;2023-02-21T08:15:52;37.80;;;26.88;;
17864;SDS011;9058;52.018;4.202;2023-02-21T08:18:20;36.67;;;26.02;;
17864;SDS011;9058;52.018;4.202;2023-02-21T08:20:48;37.78;;;26.75;;
17864;SDS011;9058;52.018;4.202;2023-02-21T08:23:15;38.03;;;24.98;;
17864;SDS011;9058;52.018;4.202;2023-02-21T08:25:42;43.55;;;25.90;;
17864;SDS011;9058;52.018;4.202;2023-02-21T08:28:08;37.22;;;26.77;;
17864;SDS011;9058;52.018;4.202;2023-02-21T08:30:35;39.28;;;26.10;;
17864;SDS011;9058;52.018;4.202;2023-02-21T08:33:01;38.13;;;26.95;;
17864;SDS011;9058;52.018;4.202;2023-02-21T08:35:29;37.88;;;27.33;;
17864;SDS011;9058;52.018;4.202;2023-02-21T08:37:55;39.38;;;25.58;;
17864;SDS011;9058;52.018;4.202;2023-02-21T08:40:27;37.55;;;26.30;;
17864;SDS011;9058;52.018;4.202;2023-02-21T08:42:53;34.08;;;26.75;;
17864;SDS011;9058;52.018;4.202;2023-02-21T08:45:20;33.85;;;26.13;;
17864;SDS011;9058;52.018;4.202;2023-02-21T08:47:48;39.67;;;26.92;;
17864;SDS011;9058;52.018;4.202;2023-02-21T08:50:15;35.58;;;26.73;;
17864;SDS011;9058;52.018;4.202;2023-02-21T08:52:44;35.28;;;25.38;;
17864;SDS011;9058;52.018;4.202;2023-02-21T08:55:10;40.90;;;28.25;;
17864;SDS011;9058;52.018;4.202;2023-02-21T08:57:37;39.42;;;28.38;;
17864;SDS011;9058;52.018;4.202;2023-02-21T09:00:03;39.97;;;28.27;;
17864;SDS011;9058;52.018;4.202;2023-02-21T09:02:33;42.22;;;29.88;;
17864;SDS011;9058;52.018;4.202;2023-02-21T09:04:59;44.20;;;28.08;;
17864;SDS011;9058;52.018;4.202;2023-02-21T09:07:25;40.20;;;28.40;;
17864;SDS011;9058;52.018;4.202;2023-02-21T09:09:54;43.85;;;28.42;;
17864;SDS011;9058;52.018;4.202;2023-02-21T09:12:20;42.53;;;28.75;;
17864;SDS011;9058;52.018;4.202;2023-02-21T09:14:46;42.45;;;28.95;;
17864;SDS011;9058;52.018;4.202;2023-02-21T09:17:13;42.05;;;28.45;;
17864;SDS011;9058;52.018;4.202;2023-02-21T09:19:39;45.58;;;29.95;;
17864;SDS011;9058;52.018;4.202;2023-02-21T09:22:08;45.53;;;29.52;;
17864;SDS011;9058;52.018;4.202;2023-02-21T09:24:34;45.05;;;30.23;;
17864;SDS011;9058;52.018;4.202;2023-02-21T09:27:02;44.90;;;28.55;;
17864;SDS011;9058;52.018;4.202;2023-02-21T09:29:29;45.85;;;29.35;;
17864;SDS011;9058;52.018;4.202;2023-02-21T09:31:55;46.53;;;30.25;;
17864;SDS011;9058;52.018;4.202;2023-02-21T09:34:22;51.75;;;30.48;;
17864;SDS011;9058;52.018;4.202;2023-02-21T09:36:48;49.28;;;29.92;;
17864;SDS011;9058;52.018;4.202;2023-02-21T09:39:15;54.55;;;32.67;;
17864;SDS011;9058;52.018;4.202;2023-02-21T09:41:42;52.92;;;30.92;;
17864;SDS011;9058;52.018;4.202;2023-02-21T09:44:11;55.50;;;31.80;;
17864;SDS011;9058;52.018;4.202;2023-02-21T09:46:40;56.22;;;31.95;;
17864;SDS011;9058;52.018;4.202;2023-02-21T09:49:10;53.72;;;31.08;;
17864;SDS011;9058;52.018;4.202;2023-02-21T09:51:37;54.60;;;31.60;;
17864;SDS011;9058;52.018;4.202;2023-02-21T09:54:10;55.63;;;29.77;;
17864;SDS011;9058;52.018;4.202;2023-02-21T09:56:39;54.25;;;30.10;;
17864;SDS011;9058;52.018;4.202;2023-02-21T09:59:08;55.03;;;29.33;;
17864;SDS011;9058;52.018;4.202;2023-02-21T10:01:46;63.25;;;32.35;;
17864;SDS011;9058;52.018;4.202;2023-02-21T10:04:17;64.07;;;29.92;;
17864;SDS011;9058;52.018;4.202;2023-02-21T10:06:48;62.05;;;29.20;;
17864;SDS011;9058;52.018;4.202;2023-02-21T10:09:19;63.45;;;29.42;;
17864;SDS011;9058;52.018;4.202;2023-02-21T10:11:52;57.58;;;27.80;;
17864;SDS011;9058;52.018;4.202;2023-02-21T10:14:23;75.63;;;31.48;;
17864;SDS011;9058;52.018;4.202;2023-02-21T10:16:55;63.13;;;27.92;;
17864;SDS011;9058;52.018;4.202;2023-02-21T10:19:24;66.45;;;30.48;;
17864;SDS011;9058;52.018;4.202;2023-02-21T10:21:54;69.43;;;31.90;;
17864;SDS011;9058;52.018;4.202;2023-02-21T10:24:23;68.60;;;30.10;;
17864;SDS011;9058;52.018;4.202;2023-02-21T10:26:51;73.75;;;30.63;;
17864;SDS011;9058;52.018;4.202;2023-02-21T10:29:20;73.03;;;28.88;;
17864;SDS011;9058;52.018;4.202;2023-02-21T10:31:47;71.00;;;29.50;;
17864;SDS011;9058;52.018;4.202;2023-02-21T10:34:18;62.13;;;29.13;;
17864;SDS011;9058;52.018;4.202;2023-02-21T10:36:45;61.40;;;29.10;;
17864;SDS011;9058;52.018;4.202;2023-02-21T10:39:14;65.68;;;29.65;;
17864;SDS011;9058;52.018;4.202;2023-02-21T10:41:41;57.28;;;27.80;;
17864;SDS011;9058;52.018;4.202;2023-02-21T10:44:09;55.13;;;27.67;;
17864;SDS011;9058;52.018;4.202;2023-02-21T10:46:39;56.80;;;27.50;;
17864;SDS011;9058;52.018;4.202;2023-02-21T10:49:16;52.35;;;27.10;;
17864;SDS011;9058;52.018;4.202;2023-02-21T10:51:46;53.55;;;27.17;;
17864;SDS011;9058;52.018;4.202;2023-02-21T10:54:16;56.65;;;27.77;;
17864;SDS011;9058;52.018;4.202;2023-02-21T10:56:42;54.88;;;27.30;;
17864;SDS011;9058;52.018;4.202;2023-02-21T10:59:09;50.97;;;26.60;;
17864;SDS011;9058;52.018;4.202;2023-02-21T11:01:44;51.55;;;26.67;;
17864;SDS011;9058;52.018;4.202;2023-02-21T11:04:21;46.05;;;24.73;;
17864;SDS011;9058;52.018;4.202;2023-02-21T11:06:51;39.05;;;22.05;;
17864;SDS011;9058;52.018;4.202;2023-02-21T11:09:23;43.67;;;24.10;;
17864;SDS011;9058;52.018;4.202;2023-02-21T11:11:58;44.28;;;24.17;;
17864;SDS011;9058;52.018;4.202;2023-02-21T11:14:28;37.00;;;21.13;;
17864;SDS011;9058;52.018;4.202;2023-02-21T11:17:04;41.38;;;22.42;;
17864;SDS011;9058;52.018;4.202;2023-02-21T11:19:40;35.25;;;19.30;;
17864;SDS011;9058;52.018;4.202;2023-02-21T11:22:08;30.48;;;18.27;;
17864;SDS011;9058;52.018;4.202;2023-02-21T11:24:42;34.88;;;18.48;;
17864;SDS011;9058;52.018;4.202;2023-02-21T11:27:09;35.13;;;19.40;;
17864;SDS011;9058;52.018;4.202;2023-02-21T11:29:37;35.17;;;18.77;;
17864;SDS011;9058;52.018;4.202;2023-02-21T11:32:09;34.47;;;19.10;;
17864;SDS011;9058;52.018;4.202;2023-02-21T11:34:36;34.75;;;19.42;;
17864;SDS011;9058;52.018;4.202;2023-02-21T11:37:10;33.15;;;18.88;;
17864;SDS011;9058;52.018;4.202;2023-02-21T11:39:37;36.53;;;20.08;;
17864;SDS011;9058;52.018;4.202;2023-02-21T11:42:22;35.63;;;20.05;;
17864;SDS011;9058;52.018;4.202;2023-02-21T11:44:49;38.80;;;19.88;;
17864;SDS011;9058;52.018;4.202;2023-02-21T11:47:20;37.03;;;20.85;;
17864;SDS011;9058;52.018;4.202;2023-02-21T11:49:48;37.75;;;20.88;;
17864;SDS011;9058;52.018;4.202;2023-02-21T11:52:19;39.20;;;21.23;;
17864;SDS011;9058;52.018;4.202;2023-02-21T11:54:47;42.65;;;22.30;;
17864;SDS011;9058;52.018;4.202;2023-02-21T11:57:15;42.90;;;20.60;;
17864;SDS011;9058;52.018;4.202;2023-02-21T11:59:45;46.72;;;23.48;;
17864;SDS011;9058;52.018;4.202;2023-02-21T12:02:17;48.00;;;23.70;;
17864;SDS011;9058;52.018;4.202;2023-02-21T12:04:52;44.15;;;21.85;;
17864;SDS011;9058;52.018;4.202;2023-02-21T12:07:22;37.42;;;19.80;;
17864;SDS011;9058;52.018;4.202;2023-02-21T12:09:55;40.25;;;20.42;;
17864;SDS011;9058;52.018;4.202;2023-02-21T12:12:27;38.92;;;19.48;;
17864;SDS011;9058;52.018;4.202;2023-02-21T12:14:59;45.00;;;22.17;;
17864;SDS011;9058;52.018;4.202;2023-02-21T12:17:31;44.47;;;20.58;;
17864;SDS011;9058;52.018;4.202;2023-02-21T12:20:06;39.03;;;20.10;;
17864;SDS011;9058;52.018;4.202;2023-02-21T12:22:41;43.22;;;20.55;;
17864;SDS011;9058;52.018;4.202;2023-02-21T12:25:14;38.28;;;18.70;;
17864;SDS011;9058;52.018;4.202;2023-02-21T12:27:43;42.03;;;19.23;;
17864;SDS011;9058;52.018;4.202;2023-02-21T12:30:17;39.25;;;18.23;;
17864;SDS011;9058;52.018;4.202;2023-02-21T12:32:48;42.53;;;19.70;;
17864;SDS011;9058;52.018;4.202;2023-02-21T12:35:32;36.10;;;17.05;;
17864;SDS011;9058;52.018;4.202;2023-02-21T12:38:07;34.20;;;17.02;;
17864;SDS011;9058;52.018;4.202;2023-02-21T12:40:38;34.80;;;17.48;;
17864;SDS011;9058;52.018;4.202;2023-02-21T12:43:16;34.80;;;15.90;;
17864;SDS011;9058;52.018;4.202;2023-02-21T12:45:46;37.38;;;17.48;;
17864;SDS011;9058;52.018;4.202;2023-02-21T12:48:17;31.80;;;16.70;;
17864;SDS011;9058;52.018;4.202;2023-02-21T12:50:45;28.30;;;13.68;;
17864;SDS011;9058;52.018;4.202;2023-02-21T12:53:16;33.00;;;14.88;;
17864;SDS011;9058;52.018;4.202;2023-02-21T12:55:44;24.40;;;14.13;;
17864;SDS011;9058;52.018;4.202;2023-02-21T12:58:13;24.48;;;13.02;;
17864;SDS011;9058;52.018;4.202;2023-02-21T13:00:43;23.58;;;12.93;;
17864;SDS011;9058;52.018;4.202;2023-02-21T13:03:16;20.60;;;10.10;;
17864;SDS011;9058;52.018;4.202;2023-02-21T13:05:49;23.10;;;11.55;;
17864;SDS011;9058;52.018;4.202;2023-02-21T13:08:20;21.45;;;11.23;;
17864;SDS011;9058;52.018;4.202;2023-02-21T13:10:50;18.23;;;9.85;;
17864;SDS011;9058;52.018;4.202;2023-02-21T13:13:18;15.27;;;9.80;;
17864;SDS011;9058;52.018;4.202;2023-02-21T13:15:46;14.77;;;9.23;;
17864;SDS011;9058;52.018;4.202;2023-02-21T13:18:15;15.75;;;8.35;;
17864;SDS011;9058;52.018;4.202;2023-02-21T13:20:45;15.10;;;9.05;;
17864;SDS011;9058;52.018;4.202;2023-02-21T13:23:13;16.48;;;9.60;;
17864;SDS011;9058;52.018;4.202;2023-02-21T13:25:48;11.07;;;7.22;;
17864;SDS011;9058;52.018;4.202;2023-02-21T13:28:19;7.70;;;5.50;;
17864;SDS011;9058;52.018;4.202;2023-02-21T13:30:49;6.80;;;5.20;;
17864;SDS011;9058;52.018;4.202;2023-02-21T13:33:24;8.02;;;5.72;;
17864;SDS011;9058;52.018;4.202;2023-02-21T13:35:52;9.05;;;5.88;;
17864;SDS011;9058;52.018;4.202;2023-02-21T13:38:21;9.73;;;6.40;;
17864;SDS011;9058;52.018;4.202;2023-02-21T13:40:51;12.20;;;7.70;;
17864;SDS011;9058;52.018;4.202;2023-02-21T13:43:20;11.60;;;8.63;;
17864;SDS011;9058;52.018;4.202;2023-02-21T13:45:48;11.50;;;8.43;;
17864;SDS011;9058;52.018;4.202;2023-02-21T13:48:22;13.82;;;8.90;;
17864;SDS011;9058;52.018;4.202;2023-02-21T13:50:51;15.45;;;9.13;;
17864;SDS011;9058;52.018;4.202;2023-02-21T13:53:19;16.38;;;10.02;;
17864;SDS011;9058;52.018;4.202;2023-02-21T13:58:33;14.90;;;8.77;;
17864;SDS011;9058;52.018;4.202;2023-02-21T14:01:14;11.43;;;7.82;;
17864;SDS011;9058;52.018;4.202;2023-02-21T14:03:41;10.85;;;8.13;;
17864;SDS011;9058;52.018;4.202;2023-02-21T14:06:21;12.02;;;8.45;;
17864;SDS011;9058;52.018;4.202;2023-02-21T14:08:49;13.60;;;8.75;;
17864;SDS011;9058;52.018;4.202;2023-02-21T14:11:21;14.35;;;9.45;;
17864;SDS011;9058;52.018;4.202;2023-02-21T14:13:50;10.95;;;7.88;;
17864;SDS011;9058;52.018;4.202;2023-02-21T14:16:19;12.30;;;8.20;;
17864;SDS011;9058;52.018;4.202;2023-02-21T14:18:48;9.73;;;7.03;;
17864;SDS011;9058;52.018;4.202;2023-02-21T14:21:20;9.18;;;7.03;;
17864;SDS011;9058;52.018;4.202;2023-02-21T14:23:50;9.25;;;7.15;;
17864;SDS011;9058;52.018;4.202;2023-02-21T14:29:14;13.63;;;8.93;;
17864;SDS011;9058;52.018;4.202;2023-02-21T14:31:47;10.65;;;8.73;;
17864;SDS011;9058;52.018;4.202;2023-02-21T14:34:16;14.07;;;9.35;;
17864;SDS011;9058;52.018;4.202;2023-02-21T14:36:45;15.20;;;9.82;;
17864;SDS011;9058;52.018;4.202;2023-02-21T14:39:11;15.23;;;10.25;;
17864;SDS011;9058;52.018;4.202;2023-02-21T14:41:42;15.95;;;10.93;;
17864;SDS011;9058;52.018;4.202;2023-02-21T14:44:18;17.10;;;11.43;;
17864;SDS011;9058;52.018;4.202;2023-02-21T14:46:52;15.50;;;10.50;;
17864;SDS011;9058;52.018;4.202;2023-02-21T14:49:30;17.30;;;11.45;;
17864;SDS011;9058;52.018;4.202;2023-02-21T14:52:07;17.15;;;11.70;;
17864;SDS011;9058;52.018;4.202;2023-02-21T14:54:49;20.30;;;11.80;;
17864;SDS011;9058;52.018;4.202;2023-02-21T14:57:25;15.48;;;9.88;;
17864;SDS011;9058;52.018;4.202;2023-02-21T15:00:03;13.82;;;8.95;;
17864;SDS011;9058;52.018;4.202;2023-02-21T15:02:38;18.90;;;10.63;;
17864;SDS011;9058;52.018;4.202;2023-02-21T15:05:15;17.42;;;10.70;;
17864;SDS011;9058;52.018;4.202;2023-02-21T15:07:48;16.25;;;11.00;;